sensor_id;sensor_type;location;lat;lon;timestamp;P1;durP1;ratioP1;P2;durP2;ratioP2
5499;SDS011;2772;42.700;23.304;2023-08-06T05:19:09;5.13;;;4.73;;
5499;SDS011;2772;42.700;23.304;2023-08-06T05:21:36;5.47;;;4.93;;
5499;SDS011;2772;42.700;23.304;2023-08-06T05:24:03;5.50;;;5.00;;
5499;SDS011;2772;42.700;23.304;2023-08-06T05:26:30;6.10;;;5.37;;
5499;SDS011;2772;42.700;23.304;2023-08-06T05:28:57;9.90;;;6.67;;
5499;SDS011;2772;42.700;23.304;2023-08-06T05:31:23;6.90;;;5.93;;
5499;SDS011;2772;42.700;23.304;2023-08-06T05:33:50;10.43;;;8.23;;
5499;SDS011;2772;42.700;23.304;2023-08-06T05:36:18;11.00;;;9.03;;
5499;SDS011;2772;42.700;23.304;2023-08-06T05:38:46;11.77;;;8.93;;
5499;SDS011;2772;42.700;23.304;2023-08-06T05:41:13;9.40;;;8.50;;
5499;SDS011;2772;42.700;23.304;2023-08-06T05:43:40;9.10;;;8.20;;
5499;SDS011;2772;42.700;23.304;2023-08-06T05:46:07;10.03;;;6.37;;
5499;SDS011;2772;42.700;23.304;2023-08-06T05:48:33;7.63;;;6.43;;
5499;SDS011;2772;42.700;23.304;2023-08-06T05:51:01;9.33;;;6.97;;
5499;SDS011;2772;42.700;23.304;2023-08-06T05:53:29;8.10;;;6.10;;
5499;SDS011;2772;42.700;23.304;2023-08-06T05:55:56;5.03;;;4.30;;
5499;SDS011;2772;42.700;23.304;2023-08-06T05:58:22;6.27;;;4.40;;
5499;SDS011;2772;42.700;23.304;2023-08-06T06:00:51;4.60;;;3.70;;
5499;SDS011;2772;42.700;23.304;2023-08-06T06:03:18;4.40;;;3.27;;
5499;SDS011;2772;42.700;23.304;2023-08-06T06:05:46;7.73;;;3.63;;
5499;SDS011;2772;42.700;23.304;2023-08-06T06:08:12;3.77;;;3.37;;
5499;SDS011;2772;42.700;23.304;2023-08-06T06:10:41;6.77;;;4.23;;
5499;SDS011;2772;42.700;23.304;2023-08-06T06:13:07;5.73;;;3.00;;
5499;SDS011;2772;42.700;23.304;2023-08-06T06:15:34;3.23;;;2.77;;
5499;SDS011;2772;42.700;23.304;2023-08-06T06:18:01;2.90;;;2.70;;
5499;SDS011;2772;42.700;23.304;2023-08-06T06:20:28;2.70;;;2.50;;
5499;SDS011;2772;42.700;23.304;2023-08-06T06:22:54;5.63;;;2.70;;
5499;SDS011;2772;42.700;23.304;2023-08-06T06:25:24;5.13;;;4.60;;
5499;SDS011;2772;42.700;23.304;2023-08-06T06:27:52;6.40;;;3.07;;
5499;SDS011;2772;42.700;23.304;2023-08-06T06:30:19;2.53;;;2.40;;
5499;SDS011;2772;42.700;23.304;2023-08-06T06:32:46;2.63;;;2.43;;
5499;SDS011;2772;42.700;23.304;2023-08-06T06:35:21;3.33;;;2.70;;
5499;SDS011;2772;42.700;23.304;2023-08-06T06:37:50;10.13;;;2.97;;
5499;SDS011;2772;42.700;23.304;2023-08-06T06:40:17;2.93;;;2.67;;
5499;SDS011;2772;42.700;23.304;2023-08-06T06:42:45;2.63;;;2.20;;
5499;SDS011;2772;42.700;23.304;2023-08-06T06:45:15;3.13;;;2.90;;
5499;SDS011;2772;42.700;23.304;2023-08-06T06:47:42;5.57;;;4.77;;
5499;SDS011;2772;42.700;23.304;2023-08-06T06:50:09;14.70;;;8.37;;
5499;SDS011;2772;42.700;23.304;2023-08-06T06:52:37;3.50;;;2.80;;
5499;SDS011;2772;42.700;23.304;2023-08-06T06:55:04;4.63;;;3.27;;
5499;SDS011;2772;42.700;23.304;2023-08-06T06:57:31;5.07;;;4.03;;
5499;SDS011;2772;42.700;23.304;2023-08-06T06:59:58;12.17;;;5.40;;
5499;SDS011;2772;42.700;23.304;2023-08-06T07:02:26;6.10;;;3.90;;
5499;SDS011;2772;42.700;23.304;2023-08-06T07:04:53;3.60;;;3.37;;
5499;SDS011;2772;42.700;23.304;2023-08-06T07:07:20;3.27;;;2.97;;
5499;SDS011;2772;42.700;23.304;2023-08-06T07:09:46;3.03;;;2.83;;
5499;SDS011;2772;42.700;23.304;2023-08-06T07:12:13;3.30;;;3.03;;
5499;SDS011;2772;42.700;23.304;2023-08-06T07:14:40;5.37;;;3.30;;
5499;SDS011;2772;42.700;23.304;2023-08-06T07:17:07;13.80;;;5.63;;
5499;SDS011;2772;42.700;23.304;2023-08-06T07:19:36;5.03;;;4.10;;
5499;SDS011;2772;42.700;23.304;2023-08-06T07:22:02;10.60;;;3.87;;
5499;SDS011;2772;42.700;23.304;2023-08-06T07:24:29;7.10;;;4.90;;
5499;SDS011;2772;42.700;23.304;2023-08-06T07:26:56;5.03;;;4.33;;
5499;SDS011;2772;42.700;23.304;2023-08-06T07:29:23;28.97;;;7.10;;
5499;SDS011;2772;42.700;23.304;2023-08-06T07:31:50;6.47;;;4.20;;
5499;SDS011;2772;42.700;23.304;2023-08-06T07:34:17;12.27;;;5.53;;
5499;SDS011;2772;42.700;23.304;2023-08-06T07:36:45;6.33;;;3.67;;
5499;SDS011;2772;42.700;23.304;2023-08-06T07:39:12;4.33;;;3.33;;
5499;SDS011;2772;42.700;23.304;2023-08-06T07:41:42;5.50;;;3.20;;
5499;SDS011;2772;42.700;23.304;2023-08-06T07:44:10;5.80;;;4.23;;
5499;SDS011;2772;42.700;23.304;2023-08-06T07:46:37;19.50;;;4.30;;
5499;SDS011;2772;42.700;23.304;2023-08-06T07:49:04;4.07;;;3.53;;
5499;SDS011;2772;42.700;23.304;2023-08-06T07:51:31;7.33;;;4.10;;
5499;SDS011;2772;42.700;23.304;2023-08-06T07:53:59;6.17;;;4.00;;
5499;SDS011;2772;42.700;23.304;2023-08-06T07:56:25;5.20;;;4.00;;
5499;SDS011;2772;42.700;23.304;2023-08-06T07:58:52;7.37;;;4.60;;
5499;SDS011;2772;42.700;23.304;2023-08-06T08:01:19;13.23;;;4.30;;
5499;SDS011;2772;42.700;23.304;2023-08-06T08:03:48;6.13;;;4.30;;
5499;SDS011;2772;42.700;23.304;2023-08-06T08:06:15;5.43;;;3.30;;
5499;SDS011;2772;42.700;23.304;2023-08-06T08:08:42;6.93;;;3.67;;
5499;SDS011;2772;42.700;23.304;2023-08-06T08:11:10;4.23;;;3.87;;
5499;SDS011;2772;42.700;23.304;2023-08-06T08:13:37;4.33;;;4.00;;
5499;SDS011;2772;42.700;23.304;2023-08-06T08:16:03;3.97;;;3.70;;
5499;SDS011;2772;42.700;23.304;2023-08-06T08:18:30;3.70;;;3.40;;
5499;SDS011;2772;42.700;23.304;2023-08-06T08:20:57;3.73;;;3.30;;
5499;SDS011;2772;42.700;23.304;2023-08-06T08:23:24;4.23;;;3.50;;
5499;SDS011;2772;42.700;23.304;2023-08-06T08:25:51;4.80;;;4.40;;
5499;SDS011;2772;42.700;23.304;2023-08-06T08:28:19;4.10;;;3.73;;
5499;SDS011;2772;42.700;23.304;2023-08-06T08:30:46;6.43;;;3.73;;
5499;SDS011;2772;42.700;23.304;2023-08-06T08:33:12;7.30;;;4.00;;
5499;SDS011;2772;42.700;23.304;2023-08-06T08:35:39;4.90;;;3.97;;
5499;SDS011;2772;42.700;23.304;2023-08-06T08:38:06;4.33;;;3.93;;
5499;SDS011;2772;42.700;23.304;2023-08-06T08:40:33;4.10;;;3.90;;
5499;SDS011;2772;42.700;23.304;2023-08-06T08:43:04;3.80;;;3.27;;
5499;SDS011;2772;42.700;23.304;2023-08-06T08:45:33;3.80;;;3.30;;
5499;SDS011;2772;42.700;23.304;2023-08-06T08:48:01;7.87;;;5.40;;
5499;SDS011;2772;42.700;23.304;2023-08-06T08:50:29;3.90;;;3.60;;
5499;SDS011;2772;42.700;23.304;2023-08-06T08:52:57;4.37;;;3.30;;
5499;SDS011;2772;42.700;23.304;2023-08-06T08:55:23;4.77;;;3.77;;
5499;SDS011;2772;42.700;23.304;2023-08-06T08:57:50;5.90;;;4.27;;
5499;SDS011;2772;42.700;23.304;2023-08-06T09:00:17;6.90;;;4.20;;
5499;SDS011;2772;42.700;23.304;2023-08-06T09:02:47;4.60;;;3.70;;
5499;SDS011;2772;42.700;23.304;2023-08-06T09:05:14;4.00;;;3.70;;
5499;SDS011;2772;42.700;23.304;2023-08-06T09:07:43;6.87;;;4.30;;
5499;SDS011;2772;42.700;23.304;2023-08-06T09:10:16;6.33;;;4.20;;
5499;SDS011;2772;42.700;23.304;2023-08-06T09:12:44;4.50;;;4.10;;
5499;SDS011;2772;42.700;23.304;2023-08-06T09:15:12;4.03;;;3.80;;
5499;SDS011;2772;42.700;23.304;2023-08-06T09:17:39;9.63;;;3.60;;
5499;SDS011;2772;42.700;23.304;2023-08-06T09:20:12;4.00;;;3.70;;
5499;SDS011;2772;42.700;23.304;2023-08-06T09:22:39;6.37;;;4.30;;
5499;SDS011;2772;42.700;23.304;2023-08-06T09:25:07;4.30;;;3.50;;
5499;SDS011;2772;42.700;23.304;2023-08-06T09:27:35;3.70;;;3.50;;
5499;SDS011;2772;42.700;23.304;2023-08-06T09:30:03;7.47;;;3.83;;
5499;SDS011;2772;42.700;23.304;2023-08-06T09:32:44;20.30;;;4.10;;
5499;SDS011;2772;42.700;23.304;2023-08-06T09:35:16;3.40;;;2.97;;
5499;SDS011;2772;42.700;23.304;2023-08-06T09:37:43;11.03;;;5.30;;
5499;SDS011;2772;42.700;23.304;2023-08-06T09:40:23;3.53;;;3.33;;
5499;SDS011;2772;42.700;23.304;2023-08-06T09:42:51;3.97;;;3.50;;
5499;SDS011;2772;42.700;23.304;2023-08-06T09:45:18;3.53;;;3.23;;
5499;SDS011;2772;42.700;23.304;2023-08-06T09:47:46;2.97;;;2.77;;
5499;SDS011;2772;42.700;23.304;2023-08-06T09:50:16;3.40;;;2.57;;
5499;SDS011;2772;42.700;23.304;2023-08-06T09:52:43;3.07;;;2.77;;
5499;SDS011;2772;42.700;23.304;2023-08-06T09:55:10;3.40;;;3.10;;
5499;SDS011;2772;42.700;23.304;2023-08-06T09:57:38;4.63;;;3.20;;
5499;SDS011;2772;42.700;23.304;2023-08-06T10:00:07;3.57;;;3.30;;
5499;SDS011;2772;42.700;23.304;2023-08-06T10:02:35;4.33;;;3.47;;
5499;SDS011;2772;42.700;23.304;2023-08-06T10:05:03;2.70;;;2.50;;
5499;SDS011;2772;42.700;23.304;2023-08-06T10:07:33;7.80;;;2.97;;
5499;SDS011;2772;42.700;23.304;2023-08-06T10:10:01;3.50;;;3.20;;
5499;SDS011;2772;42.700;23.304;2023-08-06T10:12:29;7.87;;;3.03;;
5499;SDS011;2772;42.700;23.304;2023-08-06T10:14:59;3.00;;;2.80;;
5499;SDS011;2772;42.700;23.304;2023-08-06T10:17:29;4.83;;;3.00;;
5499;SDS011;2772;42.700;23.304;2023-08-06T10:19:59;6.53;;;2.70;;
5499;SDS011;2772;42.700;23.304;2023-08-06T10:22:26;2.90;;;2.70;;
5499;SDS011;2772;42.700;23.304;2023-08-06T10:24:55;3.00;;;2.80;;
5499;SDS011;2772;42.700;23.304;2023-08-06T10:27:28;3.97;;;2.73;;
5499;SDS011;2772;42.700;23.304;2023-08-06T10:29:56;3.37;;;3.07;;
5499;SDS011;2772;42.700;23.304;2023-08-06T10:32:47;4.23;;;3.07;;
5499;SDS011;2772;42.700;23.304;2023-08-06T10:35:27;3.87;;;3.57;;
5499;SDS011;2772;42.700;23.304;2023-08-06T10:38:04;4.37;;;2.83;;
5499;SDS011;2772;42.700;23.304;2023-08-06T10:40:34;2.80;;;2.60;;
5499;SDS011;2772;42.700;23.304;2023-08-06T10:43:02;3.10;;;2.80;;
5499;SDS011;2772;42.700;23.304;2023-08-06T10:45:34;3.50;;;2.70;;
5499;SDS011;2772;42.700;23.304;2023-08-06T10:48:01;5.30;;;3.20;;
5499;SDS011;2772;42.700;23.304;2023-08-06T10:50:29;9.60;;;3.20;;
5499;SDS011;2772;42.700;23.304;2023-08-06T10:52:57;4.30;;;2.90;;
5499;SDS011;2772;42.700;23.304;2023-08-06T10:55:30;3.60;;;3.30;;
5499;SDS011;2772;42.700;23.304;2023-08-06T10:57:58;2.87;;;2.77;;
5499;SDS011;2772;42.700;23.304;2023-08-06T11:00:25;3.83;;;2.97;;
5499;SDS011;2772;42.700;23.304;2023-08-06T11:02:52;7.80;;;3.33;;
5499;SDS011;2772;42.700;23.304;2023-08-06T11:05:20;5.90;;;5.30;;
5499;SDS011;2772;42.700;23.304;2023-08-06T11:07:47;3.80;;;3.60;;
5499;SDS011;2772;42.700;23.304;2023-08-06T11:10:16;4.13;;;3.93;;
5499;SDS011;2772;42.700;23.304;2023-08-06T11:12:43;4.60;;;4.20;;
5499;SDS011;2772;42.700;23.304;2023-08-06T11:15:11;5.33;;;4.83;;
5499;SDS011;2772;42.700;23.304;2023-08-06T11:17:39;4.70;;;4.30;;
5499;SDS011;2772;42.700;23.304;2023-08-06T11:20:07;8.20;;;6.50;;
5499;SDS011;2772;42.700;23.304;2023-08-06T11:22:35;4.73;;;4.33;;
5499;SDS011;2772;42.700;23.304;2023-08-06T11:25:02;9.80;;;8.10;;
5499;SDS011;2772;42.700;23.304;2023-08-06T11:27:30;5.77;;;4.70;;
5499;SDS011;2772;42.700;23.304;2023-08-06T11:29:56;6.90;;;5.70;;
5499;SDS011;2772;42.700;23.304;2023-08-06T11:32:25;7.70;;;5.90;;
5499;SDS011;2772;42.700;23.304;2023-08-06T11:34:52;7.97;;;4.73;;
5499;SDS011;2772;42.700;23.304;2023-08-06T11:37:20;13.87;;;5.20;;
5499;SDS011;2772;42.700;23.304;2023-08-06T11:39:48;7.70;;;5.63;;
5499;SDS011;2772;42.700;23.304;2023-08-06T11:42:15;4.87;;;4.47;;
5499;SDS011;2772;42.700;23.304;2023-08-06T11:44:42;4.37;;;3.97;;
5499;SDS011;2772;42.700;23.304;2023-08-06T11:47:12;4.40;;;4.10;;
5499;SDS011;2772;42.700;23.304;2023-08-06T11:49:41;6.03;;;5.37;;
5499;SDS011;2772;42.700;23.304;2023-08-06T11:52:11;12.00;;;6.90;;
5499;SDS011;2772;42.700;23.304;2023-08-06T11:54:40;12.77;;;8.87;;
5499;SDS011;2772;42.700;23.304;2023-08-06T11:57:07;11.53;;;4.87;;
5499;SDS011;2772;42.700;23.304;2023-08-06T11:59:34;4.90;;;4.60;;
5499;SDS011;2772;42.700;23.304;2023-08-06T12:02:03;5.60;;;5.20;;
5499;SDS011;2772;42.700;23.304;2023-08-06T12:04:31;5.40;;;4.90;;
5499;SDS011;2772;42.700;23.304;2023-08-06T12:07:05;6.97;;;5.70;;
5499;SDS011;2772;42.700;23.304;2023-08-06T12:09:33;8.17;;;6.17;;
5499;SDS011;2772;42.700;23.304;2023-08-06T12:12:01;7.47;;;5.50;;
5499;SDS011;2772;42.700;23.304;2023-08-06T12:14:29;6.10;;;5.50;;
5499;SDS011;2772;42.700;23.304;2023-08-06T12:16:56;6.43;;;5.70;;
5499;SDS011;2772;42.700;23.304;2023-08-06T12:19:23;9.90;;;6.40;;
5499;SDS011;2772;42.700;23.304;2023-08-06T12:21:49;7.50;;;5.23;;
5499;SDS011;2772;42.700;23.304;2023-08-06T12:24:17;5.73;;;5.13;;
5499;SDS011;2772;42.700;23.304;2023-08-06T12:26:44;9.30;;;6.40;;
5499;SDS011;2772;42.700;23.304;2023-08-06T12:29:11;7.70;;;6.90;;
5499;SDS011;2772;42.700;23.304;2023-08-06T12:31:38;6.50;;;5.90;;
5499;SDS011;2772;42.700;23.304;2023-08-06T12:34:04;6.13;;;5.53;;
5499;SDS011;2772;42.700;23.304;2023-08-06T12:36:31;9.93;;;8.93;;
5499;SDS011;2772;42.700;23.304;2023-08-06T12:38:58;9.23;;;8.00;;
5499;SDS011;2772;42.700;23.304;2023-08-06T12:41:26;10.67;;;9.60;;
5499;SDS011;2772;42.700;23.304;2023-08-06T12:43:52;8.70;;;7.70;;
5499;SDS011;2772;42.700;23.304;2023-08-06T12:46:19;19.17;;;8.47;;
5499;SDS011;2772;42.700;23.304;2023-08-06T12:48:46;9.57;;;6.80;;
5499;SDS011;2772;42.700;23.304;2023-08-06T12:51:13;8.00;;;6.57;;
5499;SDS011;2772;42.700;23.304;2023-08-06T12:53:40;7.37;;;6.77;;
5499;SDS011;2772;42.700;23.304;2023-08-06T12:56:07;6.23;;;5.63;;
5499;SDS011;2772;42.700;23.304;2023-08-06T12:58:35;10.50;;;7.57;;
5499;SDS011;2772;42.700;23.304;2023-08-06T13:01:01;7.40;;;6.70;;
5499;SDS011;2772;42.700;23.304;2023-08-06T13:03:28;7.77;;;7.10;;
5499;SDS011;2772;42.700;23.304;2023-08-06T13:05:55;7.40;;;6.07;;
5499;SDS011;2772;42.700;23.304;2023-08-06T13:08:22;7.03;;;6.43;;
5499;SDS011;2772;42.700;23.304;2023-08-06T13:10:49;10.90;;;6.37;;
5499;SDS011;2772;42.700;23.304;2023-08-06T13:13:16;7.40;;;6.27;;
5499;SDS011;2772;42.700;23.304;2023-08-06T13:15:44;6.10;;;5.13;;
5499;SDS011;2772;42.700;23.304;2023-08-06T13:18:11;10.80;;;8.17;;
5499;SDS011;2772;42.700;23.304;2023-08-06T13:20:38;8.33;;;7.37;;
5499;SDS011;2772;42.700;23.304;2023-08-06T13:23:06;7.70;;;5.90;;
5499;SDS011;2772;42.700;23.304;2023-08-06T13:25:32;6.87;;;5.80;;
5499;SDS011;2772;42.700;23.304;2023-08-06T13:28:02;7.53;;;6.20;;
5499;SDS011;2772;42.700;23.304;2023-08-06T13:30:28;6.20;;;5.60;;
5499;SDS011;2772;42.700;23.304;2023-08-06T13:32:56;5.60;;;5.20;;
5499;SDS011;2772;42.700;23.304;2023-08-06T13:35:23;5.63;;;5.13;;
5499;SDS011;2772;42.700;23.304;2023-08-06T13:37:50;6.30;;;5.80;;
5499;SDS011;2772;42.700;23.304;2023-08-06T13:40:18;8.33;;;6.33;;
5499;SDS011;2772;42.700;23.304;2023-08-06T13:42:44;7.80;;;5.73;;
5499;SDS011;2772;42.700;23.304;2023-08-06T13:45:11;6.40;;;5.80;;
5499;SDS011;2772;42.700;23.304;2023-08-06T13:47:38;8.03;;;5.70;;
5499;SDS011;2772;42.700;23.304;2023-08-06T13:50:06;6.47;;;5.87;;
5499;SDS011;2772;42.700;23.304;2023-08-06T13:52:34;6.10;;;5.50;;
5499;SDS011;2772;42.700;23.304;2023-08-06T13:55:01;5.73;;;5.23;;
5499;SDS011;2772;42.700;23.304;2023-08-06T13:57:29;6.07;;;5.53;;
5499;SDS011;2772;42.700;23.304;2023-08-06T13:59:55;5.83;;;5.23;;
5499;SDS011;2772;42.700;23.304;2023-08-06T14:02:22;8.77;;;7.97;;
5499;SDS011;2772;42.700;23.304;2023-08-06T14:04:50;6.53;;;5.93;;
5499;SDS011;2772;42.700;23.304;2023-08-06T14:07:19;12.47;;;5.73;;
5499;SDS011;2772;42.700;23.304;2023-08-06T14:09:46;7.03;;;5.67;;
5499;SDS011;2772;42.700;23.304;2023-08-06T14:12:14;5.80;;;5.20;;
5499;SDS011;2772;42.700;23.304;2023-08-06T14:14:41;6.00;;;5.50;;
5499;SDS011;2772;42.700;23.304;2023-08-06T14:17:10;12.70;;;4.93;;
5499;SDS011;2772;42.700;23.304;2023-08-06T14:19:37;6.83;;;5.10;;
5499;SDS011;2772;42.700;23.304;2023-08-06T14:22:03;6.53;;;5.10;;
5499;SDS011;2772;42.700;23.304;2023-08-06T14:24:31;13.07;;;5.43;;
5499;SDS011;2772;42.700;23.304;2023-08-06T14:26:58;5.33;;;4.83;;
5499;SDS011;2772;42.700;23.304;2023-08-06T14:29:25;5.30;;;4.90;;
5499;SDS011;2772;42.700;23.304;2023-08-06T14:31:52;5.00;;;4.70;;
5499;SDS011;2772;42.700;23.304;2023-08-06T14:34:18;4.43;;;4.13;;
5499;SDS011;2772;42.700;23.304;2023-08-06T14:36:45;4.97;;;4.67;;
5499;SDS011;2772;42.700;23.304;2023-08-06T14:39:12;8.27;;;4.43;;
5499;SDS011;2772;42.700;23.304;2023-08-06T14:41:40;5.20;;;4.80;;
5499;SDS011;2772;42.700;23.304;2023-08-06T14:44:06;5.27;;;4.87;;
5499;SDS011;2772;42.700;23.304;2023-08-06T14:46:33;5.30;;;4.90;;
5499;SDS011;2772;42.700;23.304;2023-08-06T14:49:00;4.80;;;4.40;;
5499;SDS011;2772;42.700;23.304;2023-08-06T14:51:27;9.90;;;4.60;;
5499;SDS011;2772;42.700;23.304;2023-08-06T14:53:54;9.90;;;5.00;;
5499;SDS011;2772;42.700;23.304;2023-08-06T14:56:20;6.07;;;5.57;;
5499;SDS011;2772;42.700;23.304;2023-08-06T14:58:49;6.10;;;5.40;;
5499;SDS011;2772;42.700;23.304;2023-08-06T15:01:16;6.83;;;5.77;;
5499;SDS011;2772;42.700;23.304;2023-08-06T15:03:43;7.80;;;5.23;;
5499;SDS011;2772;42.700;23.304;2023-08-06T15:06:10;7.73;;;5.40;;
5499;SDS011;2772;42.700;23.304;2023-08-06T15:08:36;7.43;;;4.73;;
5499;SDS011;2772;42.700;23.304;2023-08-06T15:11:03;5.93;;;5.03;;
5499;SDS011;2772;42.700;23.304;2023-08-06T15:13:36;6.53;;;5.50;;
5499;SDS011;2772;42.700;23.304;2023-08-06T15:16:07;6.20;;;5.20;;
5499;SDS011;2772;42.700;23.304;2023-08-06T15:18:34;6.72;;;4.72;;
5499;SDS011;2772;42.700;23.304;2023-08-06T15:21:02;4.73;;;4.33;;
5499;SDS011;2772;42.700;23.304;2023-08-06T15:23:28;6.33;;;5.10;;
5499;SDS011;2772;42.700;23.304;2023-08-06T15:25:55;7.30;;;4.60;;
5499;SDS011;2772;42.700;23.304;2023-08-06T15:28:22;5.03;;;4.23;;
5499;SDS011;2772;42.700;23.304;2023-08-06T15:30:49;6.90;;;4.70;;
5499;SDS011;2772;42.700;23.304;2023-08-06T15:33:18;5.07;;;4.23;;
5499;SDS011;2772;42.700;23.304;2023-08-06T15:35:45;6.30;;;4.37;;
5499;SDS011;2772;42.700;23.304;2023-08-06T15:38:17;6.40;;;4.50;;
5499;SDS011;2772;42.700;23.304;2023-08-06T15:40:47;5.13;;;4.33;;
5499;SDS011;2772;42.700;23.304;2023-08-06T15:43:14;4.27;;;3.87;;
5499;SDS011;2772;42.700;23.304;2023-08-06T15:45:41;4.40;;;4.00;;
5499;SDS011;2772;42.700;23.304;2023-08-06T15:48:08;4.63;;;3.80;;
5499;SDS011;2772;42.700;23.304;2023-08-06T15:50:39;3.77;;;3.57;;
5499;SDS011;2772;42.700;23.304;2023-08-06T15:53:10;4.63;;;4.20;;
5499;SDS011;2772;42.700;23.304;2023-08-06T15:55:38;6.00;;;3.40;;
5499;SDS011;2772;42.700;23.304;2023-08-06T15:58:06;7.17;;;4.13;;
5499;SDS011;2772;42.700;23.304;2023-08-06T16:00:33;5.50;;;4.30;;
5499;SDS011;2772;42.700;23.304;2023-08-06T16:03:03;6.03;;;4.40;;
5499;SDS011;2772;42.700;23.304;2023-08-06T16:05:34;5.70;;;5.20;;
5499;SDS011;2772;42.700;23.304;2023-08-06T16:08:02;5.73;;;4.30;;
5499;SDS011;2772;42.700;23.304;2023-08-06T16:10:29;13.07;;;5.47;;
5499;SDS011;2772;42.700;23.304;2023-08-06T16:12:56;5.77;;;4.60;;
5499;SDS011;2772;42.700;23.304;2023-08-06T16:15:23;8.10;;;4.73;;
5499;SDS011;2772;42.700;23.304;2023-08-06T16:17:53;9.97;;;5.00;;
5499;SDS011;2772;42.700;23.304;2023-08-06T16:20:20;7.93;;;4.60;;
5499;SDS011;2772;42.700;23.304;2023-08-06T16:22:47;4.97;;;4.57;;
5499;SDS011;2772;42.700;23.304;2023-08-06T16:25:15;5.33;;;4.80;;
5499;SDS011;2772;42.700;23.304;2023-08-06T16:27:43;8.80;;;4.47;;
5499;SDS011;2772;42.700;23.304;2023-08-06T16:30:16;4.60;;;4.20;;
5499;SDS011;2772;42.700;23.304;2023-08-06T16:32:43;6.33;;;4.23;;
5499;SDS011;2772;42.700;23.304;2023-08-06T16:35:10;10.07;;;4.57;;
5499;SDS011;2772;42.700;23.304;2023-08-06T16:37:38;4.83;;;4.30;;
5499;SDS011;2772;42.700;23.304;2023-08-06T16:40:05;14.60;;;4.77;;
5499;SDS011;2772;42.700;23.304;2023-08-06T16:42:35;6.50;;;3.77;;
5499;SDS011;2772;42.700;23.304;2023-08-06T16:45:02;5.73;;;3.67;;
5499;SDS011;2772;42.700;23.304;2023-08-06T16:47:30;5.87;;;3.00;;
5499;SDS011;2772;42.700;23.304;2023-08-06T16:49:57;2.83;;;2.63;;
5499;SDS011;2772;42.700;23.304;2023-08-06T16:52:24;4.23;;;2.50;;
5499;SDS011;2772;42.700;23.304;2023-08-06T16:54:52;2.00;;;1.90;;
5499;SDS011;2772;42.700;23.304;2023-08-06T16:57:18;1.70;;;1.60;;
5499;SDS011;2772;42.700;23.304;2023-08-06T16:59:48;4.23;;;3.83;;
5499;SDS011;2772;42.700;23.304;2023-08-06T17:02:15;2.00;;;1.90;;
5499;SDS011;2772;42.700;23.304;2023-08-06T17:04:43;7.63;;;1.73;;
5499;SDS011;2772;42.700;23.304;2023-08-06T17:07:10;2.57;;;2.37;;
5499;SDS011;2772;42.700;23.304;2023-08-06T17:09:36;2.67;;;1.90;;
5499;SDS011;2772;42.700;23.304;2023-08-06T17:12:03;2.17;;;1.97;;
5499;SDS011;2772;42.700;23.304;2023-08-06T17:14:31;8.60;;;2.90;;
5499;SDS011;2772;42.700;23.304;2023-08-06T17:16:59;2.73;;;2.53;;
5499;SDS011;2772;42.700;23.304;2023-08-06T17:19:25;3.97;;;2.07;;
5499;SDS011;2772;42.700;23.304;2023-08-06T17:21:52;16.00;;;1.90;;
5499;SDS011;2772;42.700;23.304;2023-08-06T17:24:19;4.73;;;2.93;;
5499;SDS011;2772;42.700;23.304;2023-08-06T17:26:46;1.80;;;1.70;;
5499;SDS011;2772;42.700;23.304;2023-08-06T17:29:12;2.07;;;1.70;;
5499;SDS011;2772;42.700;23.304;2023-08-06T17:31:39;2.03;;;1.93;;
5499;SDS011;2772;42.700;23.304;2023-08-06T17:34:07;2.10;;;1.40;;
5499;SDS011;2772;42.700;23.304;2023-08-06T17:36:34;2.33;;;1.90;;
5499;SDS011;2772;42.700;23.304;2023-08-06T17:39:01;1.93;;;1.50;;
5499;SDS011;2772;42.700;23.304;2023-08-06T17:41:27;1.97;;;1.77;;
5499;SDS011;2772;42.700;23.304;2023-08-06T17:43:54;6.50;;;1.97;;
5499;SDS011;2772;42.700;23.304;2023-08-06T17:46:21;3.10;;;1.70;;
5499;SDS011;2772;42.700;23.304;2023-08-06T17:48:48;1.43;;;1.33;;
5499;SDS011;2772;42.700;23.304;2023-08-06T17:51:18;3.93;;;1.60;;
5499;SDS011;2772;42.700;23.304;2023-08-06T17:53:45;1.10;;;1.00;;
5499;SDS011;2772;42.700;23.304;2023-08-06T17:56:11;1.60;;;1.40;;
5499;SDS011;2772;42.700;23.304;2023-08-06T17:58:40;1.40;;;1.00;;
5499;SDS011;2772;42.700;23.304;2023-08-06T18:01:07;2.17;;;1.30;;
5499;SDS011;2772;42.700;23.304;2023-08-06T18:03:34;1.97;;;1.00;;
5499;SDS011;2772;42.700;23.304;2023-08-06T18:06:00;1.40;;;1.20;;
5499;SDS011;2772;42.700;23.304;2023-08-06T18:08:28;6.20;;;1.70;;
5499;SDS011;2772;42.700;23.304;2023-08-06T18:10:55;3.60;;;1.97;;
5499;SDS011;2772;42.700;23.304;2023-08-06T18:13:22;5.60;;;3.23;;
5499;SDS011;2772;42.700;23.304;2023-08-06T18:15:49;2.60;;;2.00;;
5499;SDS011;2772;42.700;23.304;2023-08-06T18:18:15;3.37;;;2.03;;
5499;SDS011;2772;42.700;23.304;2023-08-06T18:20:42;1.80;;;1.70;;
5499;SDS011;2772;42.700;23.304;2023-08-06T18:23:09;2.13;;;1.40;;
5499;SDS011;2772;42.700;23.304;2023-08-06T18:25:37;2.83;;;1.33;;
5499;SDS011;2772;42.700;23.304;2023-08-06T18:28:04;2.70;;;1.20;;
5499;SDS011;2772;42.700;23.304;2023-08-06T18:30:30;1.53;;;1.10;;
5499;SDS011;2772;42.700;23.304;2023-08-06T18:32:58;1.40;;;1.30;;
5499;SDS011;2772;42.700;23.304;2023-08-06T18:35:25;2.43;;;1.77;;
5499;SDS011;2772;42.700;23.304;2023-08-06T18:37:52;3.80;;;1.63;;
5499;SDS011;2772;42.700;23.304;2023-08-06T18:40:20;2.20;;;1.50;;
5499;SDS011;2772;42.700;23.304;2023-08-06T18:42:49;2.30;;;1.50;;
5499;SDS011;2772;42.700;23.304;2023-08-06T18:45:15;4.07;;;3.20;;
5499;SDS011;2772;42.700;23.304;2023-08-06T18:47:42;4.20;;;1.67;;
5499;SDS011;2772;42.700;23.304;2023-08-06T18:50:09;17.23;;;12.97;;
5499;SDS011;2772;42.700;23.304;2023-08-06T18:52:36;5.77;;;4.60;;
5499;SDS011;2772;42.700;23.304;2023-08-06T18:55:03;2.47;;;2.03;;
5499;SDS011;2772;42.700;23.304;2023-08-06T18:57:30;3.03;;;2.73;;
5499;SDS011;2772;42.700;23.304;2023-08-06T18:59:59;2.57;;;1.90;;
5499;SDS011;2772;42.700;23.304;2023-08-06T19:02:25;1.80;;;1.70;;
5499;SDS011;2772;42.700;23.304;2023-08-06T19:04:54;3.77;;;2.40;;
5499;SDS011;2772;42.700;23.304;2023-08-06T19:07:22;2.80;;;2.20;;
5499;SDS011;2772;42.700;23.304;2023-08-06T19:09:49;2.20;;;1.90;;
5499;SDS011;2772;42.700;23.304;2023-08-06T19:12:16;7.63;;;5.93;;
5499;SDS011;2772;42.700;23.304;2023-08-06T19:14:51;2.40;;;2.20;;
5499;SDS011;2772;42.700;23.304;2023-08-06T19:17:23;3.70;;;2.80;;
5499;SDS011;2772;42.700;23.304;2023-08-06T19:19:50;1.73;;;1.50;;
5499;SDS011;2772;42.700;23.304;2023-08-06T19:22:17;3.63;;;2.40;;
5499;SDS011;2772;42.700;23.304;2023-08-06T19:24:44;6.00;;;3.20;;
5499;SDS011;2772;42.700;23.304;2023-08-06T19:27:10;7.33;;;2.10;;
5499;SDS011;2772;42.700;23.304;2023-08-06T19:29:37;11.57;;;3.83;;
5499;SDS011;2772;42.700;23.304;2023-08-06T19:32:04;3.07;;;2.83;;
5499;SDS011;2772;42.700;23.304;2023-08-06T19:34:34;2.73;;;1.60;;
5499;SDS011;2772;42.700;23.304;2023-08-06T19:37:00;9.43;;;1.60;;
5499;SDS011;2772;42.700;23.304;2023-08-06T19:39:27;14.70;;;2.10;;
5499;SDS011;2772;42.700;23.304;2023-08-06T19:41:54;9.77;;;2.77;;
5499;SDS011;2772;42.700;23.304;2023-08-06T19:44:21;6.13;;;0.80;;
5499;SDS011;2772;42.700;23.304;2023-08-06T19:46:47;1.33;;;0.87;;
5499;SDS011;2772;42.700;23.304;2023-08-06T19:49:14;2.30;;;1.83;;
5499;SDS011;2772;42.700;23.304;2023-08-06T19:51:42;6.40;;;0.60;;
5499;SDS011;2772;42.700;23.304;2023-08-06T19:54:09;7.60;;;6.20;;
5499;SDS011;2772;42.700;23.304;2023-08-06T19:56:36;8.50;;;5.70;;
5499;SDS011;2772;42.700;23.304;2023-08-06T19:59:03;1.60;;;0.70;;
5499;SDS011;2772;42.700;23.304;2023-08-06T20:01:30;6.00;;;0.93;;
5499;SDS011;2772;42.700;23.304;2023-08-06T20:03:57;8.43;;;1.90;;
5499;SDS011;2772;42.700;23.304;2023-08-06T20:06:23;1.30;;;0.77;;
5499;SDS011;2772;42.700;23.304;2023-08-06T20:08:56;1.67;;;1.10;;
5499;SDS011;2772;42.700;23.304;2023-08-06T20:11:23;4.47;;;3.47;;
5499;SDS011;2772;42.700;23.304;2023-08-06T20:13:49;1.40;;;0.90;;
5499;SDS011;2772;42.700;23.304;2023-08-06T20:16:16;3.93;;;1.73;;
5499;SDS011;2772;42.700;23.304;2023-08-06T20:18:43;3.20;;;1.03;;
5499;SDS011;2772;42.700;23.304;2023-08-06T20:21:09;1.20;;;0.77;;